Time;durP1;ratioP1;P1;durP2;ratioP2;P2;SDS_P1;SDS_P2;PMS_P1;PMS_P2;Temp;Humidity;BMP_temperature;BMP_pressure;BME280_temperature;BME280_humidity;BME280_pressure;Samples;Min_cycle;Max_cycle;Signal;HPM_P1;HPM_P2
2024/01/28 00:00:38;;;;;;;19.92;9.27;;;;;;;6.43;57.36;103338.56;5004668;28;96951;-68
2024/01/28 00:03:06;;;;;;;18.67;8.68;;;;;;;6.41;57.45;103337.72;5005769;28;97487;-68
2024/01/28 00:05:33;;;;;;;16.13;9.00;;;;;;;6.42;57.48;103338.59;5007050;28;97498;-68
2024/01/28 00:08:00;;;;;;;15.82;7.78;;;;;;;6.41;57.49;103326.16;5005767;28;97255;-68
2024/01/28 00:10:26;;;;;;;25.33;9.13;;;;;;;6.40;57.45;103329.72;5001994;28;97131;-69
2024/01/28 00:12:53;;;;;;;17.80;7.65;;;;;;;6.38;57.64;103327.97;5006180;28;97867;-68
2024/01/28 00:15:20;;;;;;;13.85;8.18;;;;;;;6.40;57.50;103319.06;5006333;28;97897;-69
2024/01/28 00:17:46;;;;;;;19.88;8.55;;;;;;;6.39;57.42;103318.16;5008822;28;97431;-68
2024/01/28 00:20:13;;;;;;;12.18;7.85;;;;;;;6.40;57.43;103309.25;5008826;28;98105;-68
2024/01/28 00:22:40;;;;;;;17.80;7.75;;;;;;;6.40;57.35;103295.03;5007502;28;97525;-69
2024/01/28 00:25:07;;;;;;;14.38;8.23;;;;;;;6.40;57.63;103300.38;4995781;28;99461;-69
2024/01/28 00:27:34;;;;;;;15.40;7.57;;;;;;;6.40;57.35;103303.91;5003226;28;97250;-69
2024/01/28 00:30:00;;;;;;;21.77;8.30;;;;;;;6.42;57.53;103307.44;5012939;28;96966;-68
2024/01/28 00:32:27;;;;;;;14.88;7.50;;;;;;;6.43;57.55;103305.66;5010179;28;97946;-69
2024/01/28 00:34:55;;;;;;;22.73;7.72;;;;;;;6.42;57.24;103307.44;5006349;28;98115;-70
2024/01/28 00:37:23;;;;;;;14.85;8.20;;;;;;;6.40;57.57;103311.94;5012093;27;97132;-68
2024/01/28 00:39:50;;;;;;;20.42;7.95;;;;;;;6.42;57.57;103310.13;5009334;28;96999;-69
2024/01/28 00:42:17;;;;;;;13.68;8.43;;;;;;;6.42;57.49;103314.56;4998180;28;97598;-69
2024/01/28 00:44:44;;;;;;;14.80;8.48;;;;;;;6.42;57.44;103314.56;5004604;28;98021;-68
2024/01/28 00:47:10;;;;;;;16.08;8.48;;;;;;;6.42;57.44;103326.13;5006694;28;97480;-69
2024/01/28 00:49:37;;;;;;;12.43;7.47;;;;;;;6.43;57.56;103321.69;5000876;28;97339;-69
2024/01/28 00:52:04;;;;;;;16.00;7.80;;;;;;;6.42;57.52;103322.59;5003264;28;99076;-69
2024/01/28 00:54:31;;;;;;;17.10;7.95;;;;;;;6.40;57.50;103322.59;5002926;28;98089;-69
2024/01/28 00:56:58;;;;;;;18.30;9.18;;;;;;;6.41;57.38;103321.69;5002379;28;96789;-68
2024/01/28 00:59:25;;;;;;;16.35;8.48;;;;;;;6.40;57.38;103317.25;5004722;28;97672;-69
2024/01/28 01:01:52;;;;;;;19.48;9.00;;;;;;;6.36;57.29;103315.53;4999895;28;97566;-69
2024/01/28 01:04:19;;;;;;;13.48;7.53;;;;;;;6.31;57.36;103326.28;5007560;28;97768;-69
2024/01/28 01:06:45;;;;;;;17.92;8.68;;;;;;;6.28;57.30;103318.31;5005102;28;97117;-69
2024/01/28 01:09:12;;;;;;;18.30;8.65;;;;;;;6.26;57.31;103319.25;5000162;28;97275;-69
2024/01/28 01:11:43;;;;;;;13.13;8.30;;;;;;;6.24;57.43;103315.72;5002772;28;99019;-69
2024/01/28 01:14:11;;;;;;;17.75;7.78;;;;;;;6.21;57.30;103305.09;4996632;28;99170;-69
2024/01/28 01:16:37;;;;;;;15.18;7.65;;;;;;;6.16;57.32;103305.16;5006487;28;98068;-68
2024/01/28 01:19:05;;;;;;;12.85;7.60;;;;;;;6.13;57.18;103302.53;4996361;28;98078;-69
2024/01/28 01:21:32;;;;;;;14.57;7.50;;;;;;;6.11;57.38;103309.66;5002332;28;99754;-69
2024/01/28 01:23:59;;;;;;;15.68;8.43;;;;;;;6.10;57.34;103312.34;5006917;28;97504;-69
2024/01/28 01:26:26;;;;;;;22.90;9.40;;;;;;;6.09;57.36;103311.47;5008428;28;97323;-69
2024/01/28 01:28:52;;;;;;;20.67;8.60;;;;;;;6.07;57.43;103305.28;5009055;28;96883;-69
2024/01/28 01:31:19;;;;;;;12.95;7.22;;;;;;;6.03;57.36;103309.75;5007384;27;97833;-69
2024/01/28 01:33:46;;;;;;;17.02;7.80;;;;;;;6.00;57.46;103301.81;5007739;28;98013;-69
2024/01/28 01:36:13;;;;;;;19.13;8.30;;;;;;;5.97;57.44;103292.97;5000152;28;97228;-69
2024/01/28 01:38:40;;;;;;;16.48;7.88;;;;;;;5.93;57.46;103293.88;4998693;28;97225;-69
2024/01/28 01:41:07;;;;;;;18.15;8.00;;;;;;;5.90;57.61;103294.78;4996209;28;101009;-68
2024/01/28 01:43:33;;;;;;;17.20;7.75;;;;;;;5.90;57.53;103281.44;5005088;28;98212;-69
2024/01/28 01:46:00;;;;;;;16.58;7.30;;;;;;;5.89;57.55;103282.34;5003889;28;97391;-69
2024/01/28 01:48:27;;;;;;;19.75;7.95;;;;;;;5.90;57.42;103283.22;5007321;28;97126;-68
2024/01/28 01:50:54;;;;;;;17.98;7.72;;;;;;;5.92;57.47;103282.31;4983837;28;97939;-69
2024/01/28 01:53:21;;;;;;;17.17;8.20;;;;;;;5.93;57.55;103273.41;5002835;28;97581;-69
2024/01/28 01:55:48;;;;;;;15.27;7.35;;;;;;;5.94;57.47;103279.63;5000605;28;97341;-69
2024/01/28 01:58:16;;;;;;;13.27;7.40;;;;;;;5.94;57.54;103284.97;4997632;27;96921;-69
2024/01/28 02:00:44;;;;;;;17.23;7.43;;;;;;;5.94;57.56;103285.84;5010244;28;97798;-68
2024/01/28 02:03:12;;;;;;;20.50;7.63;;;;;;;5.94;57.47;103285.84;5002296;28;98109;-68
2024/01/28 02:05:39;;;;;;;23.63;7.65;;;;;;;5.94;57.55;103280.50;5006114;28;97743;-69
2024/01/28 02:08:06;;;;;;;19.80;9.00;;;;;;;5.93;57.61;103280.53;5001734;28;96860;-69
2024/01/28 02:10:32;;;;;;;17.42;8.05;;;;;;;5.92;57.55;103282.31;5005287;28;97741;-68
2024/01/28 02:13:00;;;;;;;16.38;8.18;;;;;;;5.91;57.59;103277.00;5003622;28;100143;-69
2024/01/28 02:15:26;;;;;;;12.18;7.47;;;;;;;5.90;57.73;103283.22;5004099;28;99115;-68
2024/01/28 02:17:55;;;;;;;15.95;8.05;;;;;;;5.90;57.69;103291.22;5000444;27;97803;-69
2024/01/28 02:20:22;;;;;;;16.73;7.93;;;;;;;5.88;57.55;103285.88;4996078;28;98076;-68
2024/01/28 02:22:48;;;;;;;15.38;8.27;;;;;;;5.89;57.76;103284.09;5001898;28;99779;-69
2024/01/28 02:25:15;;;;;;;17.45;8.27;;;;;;;5.91;57.66;103285.00;4996440;28;98094;-68
2024/01/28 02:27:41;;;;;;;15.48;7.50;;;;;;;5.90;57.57;103275.22;5000234;28;98885;-68
2024/01/28 02:30:10;;;;;;;14.60;7.80;;;;;;;5.92;57.72;103273.44;4997024;28;98121;-69
2024/01/28 02:32:37;;;;;;;19.00;8.35;;;;;;;5.91;57.58;103266.31;4996714;28;97816;-68
2024/01/28 02:35:04;;;;;;;14.75;7.68;;;;;;;5.90;57.88;103257.44;5003187;27;98086;-69
2024/01/28 02:37:31;;;;;;;15.05;7.43;;;;;;;5.89;57.81;103249.44;5006203;28;97218;-69
2024/01/28 02:39:58;;;;;;;20.58;7.85;;;;;;;5.86;57.81;103242.34;4999305;28;97737;-69
2024/01/28 02:42:24;;;;;;;20.88;8.45;;;;;;;5.86;57.78;103246.81;4999785;28;97598;-69
2024/01/28 02:44:51;;;;;;;18.67;7.78;;;;;;;5.86;57.70;103239.69;5001899;28;97508;-69
2024/01/28 02:47:18;;;;;;;23.92;9.18;;;;;;;5.84;57.86;103241.50;5010691;28;97571;-68
2024/01/28 02:49:45;;;;;;;19.95;8.55;;;;;;;5.84;57.76;103229.94;5008304;28;97972;-68
2024/01/28 02:52:11;;;;;;;16.25;7.55;;;;;;;5.84;57.83;103228.16;5010124;28;100313;-68
2024/01/28 02:54:40;;;;;;;16.50;8.60;;;;;;;5.86;57.72;103226.34;5005205;28;97465;-69
2024/01/28 02:57:07;;;;;;;18.52;8.68;;;;;;;5.86;57.81;103222.81;5006482;28;97316;-68
2024/01/28 02:59:33;;;;;;;14.88;7.45;;;;;;;5.86;57.78;103222.81;5010989;28;98076;-69
2024/01/28 03:02:00;;;;;;;17.17;7.63;;;;;;;5.85;57.71;103213.94;5007876;28;97533;-69
2024/01/28 03:04:27;;;;;;;19.42;7.88;;;;;;;5.86;57.81;103217.47;5011506;28;97407;-69
2024/01/28 03:06:53;;;;;;;18.90;7.00;;;;;;;5.85;57.80;103218.38;5005840;28;97019;-68
2024/01/28 03:09:20;;;;;;;15.70;7.35;;;;;;;5.84;57.75;103219.28;5011769;28;99712;-69
2024/01/28 03:11:47;;;;;;;14.27;7.38;;;;;;;5.81;57.66;103219.31;5006302;28;97980;-68
2024/01/28 03:14:14;;;;;;;18.38;7.95;;;;;;;5.80;57.82;103214.88;5004378;28;97475;-68
2024/01/28 03:16:40;;;;;;;13.50;6.88;;;;;;;5.79;57.75;103221.13;5006743;28;97909;-69
2024/01/28 03:19:07;;;;;;;17.20;7.63;;;;;;;5.78;57.91;103224.69;5002489;28;97629;-68
2024/01/28 03:21:34;;;;;;;12.02;7.20;;;;;;;5.77;57.69;103217.59;5008647;28;100520;-68
2024/01/28 03:24:01;;;;;;;13.35;6.78;;;;;;;5.77;57.69;103214.94;5003401;28;97328;-68
2024/01/28 03:26:28;;;;;;;14.93;7.55;;;;;;;5.74;57.83;103210.53;5004993;28;97342;-69
2024/01/28 03:28:54;;;;;;;17.13;7.38;;;;;;;5.73;57.68;103214.09;5010818;28;97893;-68
2024/01/28 03:31:21;;;;;;;15.57;7.20;;;;;;;5.73;57.61;103209.63;5006044;28;97920;-68
2024/01/28 03:33:47;;;;;;;13.93;7.05;;;;;;;5.71;57.71;103208.78;5011349;28;97208;-69
2024/01/28 03:36:15;;;;;;;20.73;7.18;;;;;;;5.70;57.77;103212.34;5005842;28;97682;-68
2024/01/28 03:38:41;;;;;;;15.35;7.35;;;;;;;5.72;57.77;103202.53;5003834;28;100793;-68
2024/01/28 03:41:09;;;;;;;16.05;7.40;;;;;;;5.75;57.81;103212.28;5010315;28;97759;-69
2024/01/28 03:43:36;;;;;;;12.93;6.95;;;;;;;5.76;57.67;103211.38;5010542;28;97093;-68
2024/01/28 03:46:03;;;;;;;16.08;7.07;;;;;;;5.75;57.56;103209.63;5005395;28;97302;-68
2024/01/28 03:48:30;;;;;;;17.17;7.53;;;;;;;5.72;57.59;103213.22;5010303;28;97566;-68
2024/01/28 03:50:57;;;;;;;11.80;7.25;;;;;;;5.70;57.67;103204.34;5004408;27;97387;-69
2024/01/28 03:53:23;;;;;;;17.65;7.18;;;;;;;5.71;57.57;103214.09;5003503;28;98096;-68
2024/01/28 03:55:50;;;;;;;15.65;7.35;;;;;;;5.70;57.58;103199.00;5000217;28;97517;-69
2024/01/28 03:58:17;;;;;;;14.35;7.82;;;;;;;5.69;57.69;103194.59;5002982;28;100918;-68
2024/01/28 04:00:44;;;;;;;12.25;6.15;;;;;;;5.67;57.50;103190.19;5003820;28;97473;-69
2024/01/28 04:03:11;;;;;;;16.83;6.60;;;;;;;5.65;57.61;103189.31;5012904;28;97336;-69
2024/01/28 04:05:38;;;;;;;23.30;9.25;;;;;;;5.64;57.65;103193.75;4996570;27;97300;-69
2024/01/28 04:08:09;;;;;;;20.55;7.38;;;;;;;5.64;57.60;103190.22;5009451;28;97348;-69
2024/01/28 04:10:36;;;;;;;17.15;7.95;;;;;;;5.63;57.61;103189.34;5002109;28;98383;-69
2024/01/28 04:13:03;;;;;;;16.75;7.07;;;;;;;5.61;57.71;103180.47;5009447;28;97319;-69
2024/01/28 04:15:30;;;;;;;21.67;8.23;;;;;;;5.59;57.61;103178.72;5005766;28;97643;-69
2024/01/28 04:17:57;;;;;;;18.13;7.15;;;;;;;5.57;57.73;103183.22;5001535;28;97336;-69
2024/01/28 04:20:24;;;;;;;18.17;6.63;;;;;;;5.56;57.65;103176.09;5007108;28;97808;-69
2024/01/28 04:22:51;;;;;;;11.82;6.15;;;;;;;5.57;57.78;103181.41;4996554;28;97370;-69
2024/01/28 04:25:18;;;;;;;12.15;7.57;;;;;;;5.57;57.71;103169.88;4995416;28;97514;-69
2024/01/28 04:27:45;;;;;;;16.17;7.13;;;;;;;5.56;57.75;103166.31;5005899;28;98103;-68
2024/01/28 04:30:11;;;;;;;20.25;6.90;;;;;;;5.55;57.81;103167.22;5011844;27;98260;-69
2024/01/28 04:32:39;;;;;;;17.70;7.25;;;;;;;5.53;57.70;103162.81;5008299;28;97595;-69
2024/01/28 04:35:06;;;;;;;14.45;7.30;;;;;;;5.50;57.79;103166.41;5006425;28;97179;-69
2024/01/28 04:37:32;;;;;;;14.27;7.53;;;;;;;5.50;57.86;103161.09;5008663;28;97732;-69
2024/01/28 04:39:59;;;;;;;14.00;6.85;;;;;;;5.51;57.75;103156.63;5005518;28;98593;-69
2024/01/28 04:42:26;;;;;;;17.50;6.93;;;;;;;5.50;57.72;103146.88;5001435;28;96997;-69
2024/01/28 04:44:53;;;;;;;13.57;6.78;;;;;;;5.49;57.62;103145.13;5005351;28;96981;-69
2024/01/28 04:47:19;;;;;;;15.20;7.43;;;;;;;5.48;57.69;103154.00;5009594;28;97650;-69
2024/01/28 04:49:46;;;;;;;14.90;6.80;;;;;;;5.47;57.79;103155.78;4998325;28;97552;-69
2024/01/28 04:52:13;;;;;;;12.30;6.53;;;;;;;5.48;57.77;103154.88;5002201;28;97971;-69
2024/01/28 04:54:40;;;;;;;24.90;7.57;;;;;;;5.49;57.81;103147.78;5002467;28;96863;-69
2024/01/28 04:57:07;;;;;;;15.93;6.75;;;;;;;5.48;57.67;103149.56;5002358;28;98117;-69
2024/01/28 04:59:34;;;;;;;16.42;7.00;;;;;;;5.45;57.60;103144.28;5008951;28;97961;-69
2024/01/28 05:02:01;;;;;;;11.40;6.45;;;;;;;5.43;57.68;103143.41;5005602;28;97570;-69
2024/01/28 05:04:28;;;;;;;15.25;5.72;;;;;;;5.42;57.72;103133.66;5011773;28;97458;-69
2024/01/28 05:06:55;;;;;;;11.85;6.40;;;;;;;5.41;57.72;103134.56;5006200;28;98479;-69
2024/01/28 05:09:21;;;;;;;17.55;6.80;;;;;;;5.42;57.69;103134.53;5012246;28;97576;-69
2024/01/28 05:11:49;;;;;;;16.40;6.97;;;;;;;5.43;57.77;103132.75;4997644;28;96848;-69
2024/01/28 05:14:16;;;;;;;18.42;8.25;;;;;;;5.46;57.88;103130.03;5010300;28;97290;-69
2024/01/28 05:16:47;;;;;;;15.68;6.72;;;;;;;5.47;57.80;103139.81;5006558;28;98084;-69
2024/01/28 05:19:14;;;;;;;13.77;6.35;;;;;;;5.47;57.67;103131.81;5005209;28;99837;-69
2024/01/28 05:21:41;;;;;;;14.95;7.30;;;;;;;5.46;57.77;103121.16;4999346;28;99576;-69
2024/01/28 05:24:07;;;;;;;13.80;7.10;;;;;;;5.47;57.89;103141.59;5006528;28;97187;-69
2024/01/28 05:26:35;;;;;;;18.27;7.38;;;;;;;5.45;57.81;103132.72;4992911;28;97552;-69
2024/01/28 05:29:05;;;;;;;14.52;6.88;;;;;;;5.45;57.69;103138.94;5007180;28;101063;-69
2024/01/28 05:31:33;;;;;;;11.73;6.53;;;;;;;5.45;57.63;103127.41;4999095;28;97096;-69
2024/01/28 05:34:01;;;;;;;13.75;7.13;;;;;;;5.41;57.62;103135.44;5009192;27;96906;-69
2024/01/28 05:36:29;;;;;;;11.98;6.90;;;;;;;5.41;57.62;103130.09;5004361;28;97911;-69
2024/01/28 05:38:55;;;;;;;17.63;6.97;;;;;;;5.41;57.71;103114.13;5010979;28;99111;-69
2024/01/28 05:41:22;;;;;;;13.65;7.10;;;;;;;5.42;57.69;103113.22;5009363;28;96888;-69
2024/01/28 05:43:49;;;;;;;16.17;7.53;;;;;;;5.40;57.57;103106.16;5011398;28;97467;-69
2024/01/28 05:46:16;;;;;;;16.55;7.20;;;;;;;5.37;57.69;103099.06;5006330;28;97590;-69
2024/01/28 05:48:42;;;;;;;13.60;6.60;;;;;;;5.37;57.60;103101.75;5003308;28;98041;-69
2024/01/28 05:51:10;;;;;;;17.23;7.07;;;;;;;5.35;57.54;103092.00;5001405;28;98342;-69
2024/01/28 05:53:36;;;;;;;13.32;7.35;;;;;;;5.33;57.64;103091.16;4985088;28;97446;-69
2024/01/28 05:56:04;;;;;;;14.27;7.18;;;;;;;5.27;57.56;103081.44;4994690;28;98101;-70
2024/01/28 05:58:30;;;;;;;13.50;7.75;;;;;;;5.26;57.63;103074.34;5004206;28;101121;-69
2024/01/28 06:01:01;;;;;;;17.33;7.00;;;;;;;5.24;57.54;103065.50;4999052;28;97106;-69
2024/01/28 06:03:28;;;;;;;14.55;7.28;;;;;;;5.21;57.79;103067.31;5010974;27;98664;-69
2024/01/28 06:05:55;;;;;;;13.93;6.65;;;;;;;5.18;57.63;103052.22;5003176;28;97476;-69
2024/01/28 06:08:23;;;;;;;16.58;6.97;;;;;;;5.14;57.59;103054.97;5003615;28;100651;-69
2024/01/28 06:10:49;;;;;;;17.13;7.20;;;;;;;5.13;57.60;103062.06;4999553;28;98034;-69
2024/01/28 06:13:16;;;;;;;13.93;7.47;;;;;;;5.15;57.72;103056.72;5001128;28;96889;-69
2024/01/28 06:15:44;;;;;;;10.48;6.15;;;;;;;5.17;57.57;103054.91;5005302;28;97665;-69
2024/01/28 06:18:11;;;;;;;12.32;6.32;;;;;;;5.20;57.72;103044.22;4998499;28;98092;-69
2024/01/28 06:20:37;;;;;;;13.75;6.40;;;;;;;5.21;57.75;103049.56;5003484;28;97108;-69
2024/01/28 06:23:04;;;;;;;12.80;6.60;;;;;;;5.18;57.60;103043.38;4999365;28;98854;-69
2024/01/28 06:25:31;;;;;;;13.30;5.93;;;;;;;5.14;57.56;103041.66;5001879;28;98309;-69
2024/01/28 06:27:58;;;;;;;9.00;6.07;;;;;;;5.09;57.65;103039.91;5007880;28;97639;-69
2024/01/28 06:30:27;;;;;;;16.05;6.80;;;;;;;5.07;57.67;103036.41;5010291;28;97152;-69
2024/01/28 06:32:54;;;;;;;14.90;6.75;;;;;;;5.08;57.79;103037.28;5005082;28;97525;-69
2024/01/28 06:35:21;;;;;;;14.98;7.50;;;;;;;5.10;57.69;103035.47;5005320;28;100311;-69
2024/01/28 06:37:48;;;;;;;13.82;6.50;;;;;;;5.11;57.73;103039.91;4996857;28;97721;-68
2024/01/28 06:40:14;;;;;;;16.52;7.05;;;;;;;5.13;57.68;103031.91;5005779;28;97766;-69
2024/01/28 06:42:41;;;;;;;14.55;7.28;;;;;;;5.14;57.43;103029.22;4984799;28;97288;-69
2024/01/28 06:45:09;;;;;;;11.95;6.70;;;;;;;5.15;57.63;103030.97;4989042;28;98014;-68
2024/01/28 06:47:36;;;;;;;10.88;6.57;;;;;;;5.17;57.70;103033.63;4989909;28;97541;-69
2024/01/28 06:50:04;;;;;;;15.68;7.55;;;;;;;5.17;57.64;103033.63;4994626;28;97650;-69
2024/01/28 06:52:31;;;;;;;9.75;6.15;;;;;;;5.17;57.56;103041.59;4989497;28;99000;-69
2024/01/28 06:54:58;;;;;;;12.38;6.60;;;;;;;5.15;57.50;103030.97;4987724;28;97910;-69
2024/01/28 06:57:25;;;;;;;15.32;6.82;;;;;;;5.14;57.54;103037.19;4990878;28;99190;-69
2024/01/28 06:59:51;;;;;;;11.18;6.75;;;;;;;5.14;57.60;103031.00;4986118;28;98608;-69
2024/01/28 07:02:18;;;;;;;15.10;7.28;;;;;;;5.13;57.45;103029.22;4987180;28;97551;-69
2024/01/28 07:04:45;;;;;;;11.18;6.35;;;;;;;5.13;57.50;103026.56;4986386;28;100208;-68
2024/01/28 07:07:11;;;;;;;14.10;6.70;;;;;;;5.11;57.57;103032.78;4988145;28;98666;-69
2024/01/28 07:09:39;;;;;;;12.60;6.60;;;;;;;5.12;57.51;103025.69;4997129;28;98680;-69
2024/01/28 07:12:08;;;;;;;11.40;6.65;;;;;;;5.10;57.60;103028.38;5003103;28;98764;-68
2024/01/28 07:14:35;;;;;;;18.42;7.07;;;;;;;5.08;57.54;103030.16;4997833;28;97645;-68
2024/01/28 07:17:01;;;;;;;13.00;7.05;;;;;;;5.06;57.46;103033.75;4995503;28;97432;-69
2024/01/28 07:19:28;;;;;;;12.57;6.63;;;;;;;5.01;57.64;103033.81;4991805;28;97803;-69
2024/01/28 07:21:54;;;;;;;15.38;7.15;;;;;;;4.99;57.61;103030.28;4996491;28;97522;-69
2024/01/28 07:24:21;;;;;;;11.05;5.93;;;;;;;4.97;57.30;103023.22;5005940;28;97718;-69
2024/01/28 07:26:48;;;;;;;14.90;6.85;;;;;;;4.98;57.59;103027.66;4998275;28;97658;-69
2024/01/28 07:29:14;;;;;;;13.25;6.40;;;;;;;5.00;57.56;103031.19;4994724;28;97615;-69
2024/01/28 07:31:41;;;;;;;15.90;7.55;;;;;;;5.02;57.68;103019.59;5000802;28;96900;-69
2024/01/28 07:34:08;;;;;;;13.23;7.10;;;;;;;5.04;57.59;103028.44;5007700;28;97384;-69
2024/01/28 07:36:35;;;;;;;12.38;6.13;;;;;;;5.05;57.63;103030.22;5001374;28;98203;-69
2024/01/28 07:39:06;;;;;;;10.48;6.30;;;;;;;5.04;57.61;103033.78;4991381;27;98147;-69
2024/01/28 07:41:35;;;;;;;18.92;7.68;;;;;;;5.04;57.48;103036.44;5004517;28;97852;-69
2024/01/28 07:44:02;;;;;;;18.15;8.05;;;;;;;5.06;57.50;103039.09;5002322;28;97385;-69
2024/01/28 07:46:29;;;;;;;12.00;6.53;;;;;;;5.08;57.64;103045.28;4997988;28;98254;-69
2024/01/28 07:48:56;;;;;;;9.80;6.10;;;;;;;5.11;57.67;103051.44;4989597;28;97257;-69
2024/01/28 07:51:23;;;;;;;17.70;6.68;;;;;;;5.15;57.69;103048.72;4996621;28;97868;-69
2024/01/28 07:53:50;;;;;;;15.15;7.57;;;;;;;5.19;57.66;103045.13;5009350;28;97365;-68
2024/01/28 07:56:16;;;;;;;12.90;6.40;;;;;;;5.21;57.68;103046.03;4994437;28;97806;-69
2024/01/28 07:58:44;;;;;;;16.30;6.28;;;;;;;5.24;57.60;103040.66;4996819;28;97447;-69
2024/01/28 08:01:11;;;;;;;14.80;6.72;;;;;;;5.25;57.71;103039.75;4991601;28;97317;-68
2024/01/28 08:03:38;;;;;;;13.70;6.22;;;;;;;5.25;57.58;103045.97;4999545;28;97460;-69
2024/01/28 08:06:07;;;;;;;14.07;6.28;;;;;;;5.26;57.65;103030.84;4991682;28;98249;-69
2024/01/28 08:08:34;;;;;;;12.07;5.78;;;;;;;5.26;57.61;103029.06;4994474;28;98896;-69
2024/01/28 08:11:01;;;;;;;11.07;5.85;;;;;;;5.27;57.78;103029.94;4994402;28;98830;-69
2024/01/28 08:13:28;;;;;;;13.52;6.07;;;;;;;5.29;57.73;103033.47;4991082;28;98260;-69
2024/01/28 08:16:01;;;;;;;9.93;6.20;;;;;;;5.31;57.65;103034.34;4999609;28;97900;-69
2024/01/28 08:18:29;;;;;;;12.40;6.32;;;;;;;5.34;57.69;103026.28;4993287;28;97872;-69
2024/01/28 08:20:56;;;;;;;10.25;6.47;;;;;;;5.34;57.65;103024.50;4993743;28;97435;-70
2024/01/28 08:23:25;;;;;;;13.25;6.43;;;;;;;5.36;57.74;103024.50;4991460;28;97458;-69
2024/01/28 08:26:15;;;;;;;11.60;6.40;;;;;;;5.38;57.69;103012.91;4980355;28;97728;-69
2024/01/28 08:28:42;;;;;;;14.73;6.15;;;;;;;5.40;57.79;103002.22;4986994;28;97124;-69
2024/01/28 08:31:09;;;;;;;16.42;6.07;;;;;;;5.44;57.77;103003.94;4984874;28;97525;-68
2024/01/28 08:33:36;;;;;;;20.60;6.75;;;;;;;5.46;57.76;103002.13;4986342;28;97567;-68
2024/01/28 08:36:03;;;;;;;13.57;6.13;;;;;;;5.48;57.67;103002.09;4987794;28;97977;-68
2024/01/28 08:38:32;;;;;;;16.88;5.57;;;;;;;5.49;57.59;103004.75;4985118;28;97500;-68
2024/01/28 08:41:00;;;;;;;14.57;6.00;;;;;;;5.52;57.69;103007.38;4989142;28;98713;-68
2024/01/28 08:43:27;;;;;;;14.75;6.05;;;;;;;5.55;57.69;103001.09;4986179;28;98774;-69
2024/01/28 08:45:54;;;;;;;10.05;5.88;;;;;;;5.55;57.69;102999.31;5001167;28;97693;-68
2024/01/28 08:48:21;;;;;;;8.70;5.63;;;;;;;5.57;57.73;102997.50;4998843;28;97070;-68
2024/01/28 08:50:48;;;;;;;11.85;5.82;;;;;;;5.57;57.63;102994.84;4996417;28;96855;-68
2024/01/28 08:53:15;;;;;;;13.80;5.47;;;;;;;5.57;57.68;102985.97;4992962;28;98038;-68
2024/01/28 08:55:42;;;;;;;12.40;6.55;;;;;;;5.60;57.73;102986.78;4996431;28;97621;-68
2024/01/28 08:58:10;;;;;;;14.68;5.93;;;;;;;5.63;57.69;102985.88;4996137;28;98177;-68
2024/01/28 09:00:36;;;;;;;11.65;5.43;;;;;;;5.66;57.78;102980.50;5000926;28;97309;-68
2024/01/28 09:03:04;;;;;;;11.95;6.18;;;;;;;5.69;57.62;102983.97;5000734;28;98039;-68
2024/01/28 09:05:31;;;;;;;12.73;6.40;;;;;;;5.70;57.62;102983.06;4996889;28;99880;-68
2024/01/28 09:07:58;;;;;;;11.57;5.55;;;;;;;5.72;57.71;102981.25;5005302;28;97599;-69
2024/01/28 09:10:26;;;;;;;13.20;6.50;;;;;;;5.75;57.67;102981.22;4995809;28;97503;-69
2024/01/28 09:12:52;;;;;;;12.80;6.25;;;;;;;5.79;57.46;102978.50;4985655;28;99412;-68
2024/01/28 09:15:19;;;;;;;11.57;6.03;;;;;;;5.83;57.71;102980.19;4983861;28;97466;-68
2024/01/28 09:17:46;;;;;;;11.73;5.55;;;;;;;5.84;57.70;102973.97;4989964;28;96977;-69
2024/01/28 09:20:13;;;;;;;9.23;5.32;;;;;;;5.88;57.74;102978.34;4984610;28;98563;-68
2024/01/28 09:22:40;;;;;;;19.75;6.75;;;;;;;5.91;57.74;102971.19;4983758;28;97694;-68
2024/01/28 09:25:07;;;;;;;12.30;5.93;;;;;;;5.96;57.79;102979.13;4985517;28;97511;-68
2024/01/28 09:27:34;;;;;;;15.07;6.38;;;;;;;6.00;57.64;102976.38;4988305;28;98050;-68
2024/01/28 09:30:00;;;;;;;12.63;5.65;;;;;;;6.04;57.56;102977.22;4994691;28;98896;-68
2024/01/28 09:32:27;;;;;;;14.35;5.82;;;;;;;6.09;57.68;102974.47;4983101;28;97716;-68
2024/01/28 09:34:54;;;;;;;15.02;5.80;;;;;;;6.12;57.63;102975.28;4984062;28;98295;-68
2024/01/28 09:37:21;;;;;;;10.18;4.95;;;;;;;6.15;57.54;102969.91;5009017;28;97263;-68
2024/01/28 09:39:47;;;;;;;10.90;5.80;;;;;;;6.20;57.39;102972.47;5008787;28;97269;-69
2024/01/28 09:42:23;;;;;;;11.38;6.25;;;;;;;6.23;57.60;102978.63;4987278;28;97770;-68
2024/01/28 09:44:50;;;;;;;13.15;6.05;;;;;;;6.28;57.52;102979.41;4988794;28;97887;-68
2024/01/28 09:47:20;;;;;;;14.55;5.63;;;;;;;6.33;57.71;102977.53;5000306;28;98049;-69
2024/01/28 09:49:47;;;;;;;14.10;5.43;;;;;;;6.38;57.44;102967.66;4999660;28;97109;-69
2024/01/28 09:52:14;;;;;;;10.95;6.55;;;;;;;6.43;57.41;102964.03;4995261;28;97955;-68
2024/01/28 09:54:46;;;;;;;11.55;5.45;;;;;;;6.47;57.48;102960.38;4996577;27;97472;-69
2024/01/28 09:57:15;;;;;;;11.77;6.03;;;;;;;6.51;57.39;102959.41;4994317;28;97595;-69
2024/01/28 09:59:45;;;;;;;8.07;4.68;;;;;;;6.56;57.46;102957.53;5007596;28;97258;-69
2024/01/28 10:02:14;;;;;;;9.57;5.40;;;;;;;6.60;57.43;102957.41;4999034;28;99734;-69
2024/01/28 10:04:42;;;;;;;12.57;6.00;;;;;;;6.64;57.61;102960.91;5003202;27;98284;-68
2024/01/28 10:07:11;;;;;;;9.60;5.10;;;;;;;6.68;57.44;102952.81;5000154;28;97678;-69
2024/01/28 10:09:38;;;;;;;10.57;5.75;;;;;;;6.73;57.32;102947.41;4996027;28;97374;-68
2024/01/28 10:12:08;;;;;;;10.88;5.13;;;;;;;6.79;57.49;102949.06;4999877;28;97701;-68
2024/01/28 10:14:35;;;;;;;9.18;5.55;;;;;;;6.85;57.29;102947.13;5004079;28;98184;-68
2024/01/28 10:17:02;;;;;;;7.00;5.10;;;;;;;6.91;57.27;102944.31;4996014;28;97531;-69
2024/01/28 10:19:28;;;;;;;9.70;5.00;;;;;;;6.97;57.39;102944.19;5003371;28;97390;-69
2024/01/28 10:21:56;;;;;;;8.27;4.88;;;;;;;7.04;57.38;102941.38;5003794;28;97737;-69
2024/01/28 10:24:22;;;;;;;10.35;5.75;;;;;;;7.09;57.25;102929.66;5011144;28;97759;-68
2024/01/28 10:26:49;;;;;;;11.82;5.85;;;;;;;7.16;57.37;102931.28;4989404;27;96676;-69
2024/01/28 10:29:17;;;;;;;7.82;4.85;;;;;;;7.22;57.27;102928.44;5001774;28;99044;-68
2024/01/28 10:31:44;;;;;;;7.68;5.03;;;;;;;7.28;57.29;102933.66;4997893;28;98891;-69
2024/01/28 10:34:11;;;;;;;13.93;5.35;;;;;;;7.36;57.26;102929.91;4991194;28;97638;-68
2024/01/28 10:36:40;;;;;;;7.93;4.90;;;;;;;7.40;57.15;102931.59;5000537;28;97158;-69
2024/01/28 10:39:10;;;;;;;8.68;4.75;;;;;;;7.46;57.12;102934.16;5000058;28;97576;-68
2024/01/28 10:41:48;;;;;;;12.23;7.00;;;;;;;7.52;57.21;102928.66;5007645;28;97826;-69
2024/01/28 10:44:16;;;;;;;7.78;3.92;;;;;;;7.58;57.02;102925.81;5005671;28;97715;-69
2024/01/28 10:46:44;;;;;;;10.50;5.03;;;;;;;7.65;56.94;102928.28;5005543;28;97198;-69
2024/01/28 10:49:14;;;;;;;10.57;5.13;;;;;;;7.71;56.94;102919.22;4991963;28;97388;-69
2024/01/28 10:51:42;;;;;;;6.93;4.63;;;;;;;7.79;56.81;102916.34;4990117;28;99790;-69
2024/01/28 10:54:13;;;;;;;9.30;4.75;;;;;;;7.86;56.91;102916.16;4987430;28;97886;-69
2024/01/28 10:56:41;;;;;;;8.10;4.50;;;;;;;7.92;56.64;102913.31;4994636;28;97165;-69
2024/01/28 10:59:08;;;;;;;9.57;4.25;;;;;;;7.99;56.66;102908.66;4996538;28;97202;-69
2024/01/28 11:01:36;;;;;;;8.50;4.28;;;;;;;8.03;56.45;102899.63;5002684;28;98029;-68
2024/01/28 11:04:04;;;;;;;10.05;4.30;;;;;;;8.09;56.50;102898.59;4990930;28;97483;-69
2024/01/28 11:06:32;;;;;;;7.25;3.80;;;;;;;8.15;56.32;102898.41;4999131;28;96893;-69
2024/01/28 11:08:59;;;;;;;9.38;5.22;;;;;;;8.21;56.30;102898.28;5004402;28;97673;-68
2024/01/28 11:11:27;;;;;;;8.63;4.70;;;;;;;8.27;56.17;102893.63;4995273;28;97875;-69
2024/01/28 11:13:55;;;;;;;12.75;4.72;;;;;;;8.33;55.98;102883.66;5004590;28;98475;-69
2024/01/28 11:16:22;;;;;;;8.50;4.72;;;;;;;8.38;55.94;102879.97;4999402;28;97340;-69
2024/01/28 11:19:11;;;;;;;8.73;4.50;;;;;;;8.44;55.97;102876.22;4996037;28;98514;-69
2024/01/28 11:21:40;;;;;;;6.80;4.18;;;;;;;8.51;55.94;102875.13;5001699;28;99986;-69
2024/01/28 11:24:13;;;;;;;10.60;4.75;;;;;;;8.53;55.70;102871.47;5006464;28;97363;-69
2024/01/28 11:26:45;;;;;;;7.82;4.63;;;;;;;8.55;55.58;102872.28;4989766;28;98968;-69